sensor_id;sensor_type;location;lat;lon;timestamp;pressure;altitude;pressure_sealevel;temperature;humidity
68822;BME280;55834;50.870;4.606;2023-03-30T00:01:12;100000.41;;;13.47;44.46
68822;BME280;55834;50.870;4.606;2023-03-30T00:03:39;99994.28;;;13.12;45.27
68822;BME280;55834;50.870;4.606;2023-03-30T00:06:07;99991.53;;;12.96;45.79
68822;BME280;55834;50.870;4.606;2023-03-30T00:08:33;100007.69;;;12.92;45.78
68822;BME280;55834;50.870;4.606;2023-03-30T00:11:10;99996.25;;;12.53;46.60
68822;BME280;55834;50.870;4.606;2023-03-30T00:13:42;99995.44;;;12.89;46.10
68822;BME280;55834;50.870;4.606;2023-03-30T00:16:11;99970.47;;;13.45;44.61
68822;BME280;55834;50.870;4.606;2023-03-30T00:18:37;99979.59;;;13.40;45.08
68822;BME280;55834;50.870;4.606;2023-03-30T00:21:03;99977.53;;;12.94;45.54
68822;BME280;55834;50.870;4.606;2023-03-30T00:23:29;99972.03;;;12.62;46.07
68822;BME280;55834;50.870;4.606;2023-03-30T00:25:55;99967.38;;;12.85;46.13
68822;BME280;55834;50.870;4.606;2023-03-30T00:28:21;99957.78;;;13.35;44.83
68822;BME280;55834;50.870;4.606;2023-03-30T00:30:47;99950.97;;;13.46;44.42
68822;BME280;55834;50.870;4.606;2023-03-30T00:33:13;99958.03;;;12.95;45.45
68822;BME280;55834;50.870;4.606;2023-03-30T00:35:38;99956.16;;;13.15;45.16
68822;BME280;55834;50.870;4.606;2023-03-30T00:38:04;99951.91;;;13.45;44.45
68822;BME280;55834;50.870;4.606;2023-03-30T00:40:31;99954.09;;;13.37;44.31
68822;BME280;55834;50.870;4.606;2023-03-30T00:43:02;99949.63;;;13.04;45.18
68822;BME280;55834;50.870;4.606;2023-03-30T00:45:34;99942.84;;;12.99;45.32
68822;BME280;55834;50.870;4.606;2023-03-30T00:48:09;99954.44;;;12.42;45.99
68822;BME280;55834;50.870;4.606;2023-03-30T00:50:37;99944.63;;;12.98;45.20
68822;BME280;55834;50.870;4.606;2023-03-30T00:53:09;99926.63;;;12.87;45.38
68822;BME280;55834;50.870;4.606;2023-03-30T00:55:37;99949.41;;;12.19;46.58
68822;BME280;55834;50.870;4.606;2023-03-30T00:58:06;99938.22;;;13.02;45.12
68822;BME280;55834;50.870;4.606;2023-03-30T01:00:34;99939.44;;;12.97;44.77
68822;BME280;55834;50.870;4.606;2023-03-30T01:03:08;99942.06;;;12.79;44.62
68822;BME280;55834;50.870;4.606;2023-03-30T01:05:36;99945.09;;;12.72;45.48
68822;BME280;55834;50.870;4.606;2023-03-30T01:08:03;99933.25;;;12.96;44.69
68822;BME280;55834;50.870;4.606;2023-03-30T01:10:33;99935.38;;;12.90;44.62
68822;BME280;55834;50.870;4.606;2023-03-30T01:12:59;99930.06;;;12.72;44.39
68822;BME280;55834;50.870;4.606;2023-03-30T01:15:26;99927.34;;;13.08;44.05
68822;BME280;55834;50.870;4.606;2023-03-30T01:18:18;99937.16;;;12.72;45.03
68822;BME280;55834;50.870;4.606;2023-03-30T01:21:18;99940.88;;;13.02;44.03
68822;BME280;55834;50.870;4.606;2023-03-30T01:26:53;99934.03;;;12.98;43.79
68822;BME280;55834;50.870;4.606;2023-03-30T01:32:17;99920.03;;;12.42;45.07
68822;BME280;55834;50.870;4.606;2023-03-30T01:43:47;99892.28;;;12.86;44.34
68822;BME280;55834;50.870;4.606;2023-03-30T01:46:21;99898.75;;;12.80;44.54
68822;BME280;55834;50.870;4.606;2023-03-30T01:49:00;99895.97;;;13.17;43.74
68822;BME280;55834;50.870;4.606;2023-03-30T01:51:34;99903.78;;;12.85;44.75
68822;BME280;55834;50.870;4.606;2023-03-30T01:54:09;99901.44;;;12.96;44.51
68822;BME280;55834;50.870;4.606;2023-03-30T02:01:36;99915.66;;;13.28;43.64
68822;BME280;55834;50.870;4.606;2023-03-30T02:04:05;99922.19;;;13.05;44.38
68822;BME280;55834;50.870;4.606;2023-03-30T02:06:40;99932.34;;;12.97;44.55
68822;BME280;55834;50.870;4.606;2023-03-30T02:09:17;99932.84;;;13.21;44.13
68822;BME280;55834;50.870;4.606;2023-03-30T02:11:47;99936.81;;;12.41;45.81
68822;BME280;55834;50.870;4.606;2023-03-30T02:14:15;99931.06;;;13.04;45.10
68822;BME280;55834;50.870;4.606;2023-03-30T02:16:45;99926.63;;;13.05;44.76
68822;BME280;55834;50.870;4.606;2023-03-30T02:19:11;99922.66;;;12.96;45.68
68822;BME280;55834;50.870;4.606;2023-03-30T02:21:37;99927.16;;;13.29;44.90
68822;BME280;55834;50.870;4.606;2023-03-30T02:24:05;99926.38;;;13.27;44.43
68822;BME280;55834;50.870;4.606;2023-03-30T02:26:32;99923.56;;;13.30;44.48
68822;BME280;55834;50.870;4.606;2023-03-30T02:28:59;99921.47;;;13.02;45.35
68822;BME280;55834;50.870;4.606;2023-03-30T02:31:25;99923.22;;;13.03;45.58
68822;BME280;55834;50.870;4.606;2023-03-30T02:34:16;99917.81;;;12.70;46.73
68822;BME280;55834;50.870;4.606;2023-03-30T02:39:56;99936.72;;;12.26;47.37
68822;BME280;55834;50.870;4.606;2023-03-30T02:43:12;99931.69;;;12.92;46.41
68822;BME280;55834;50.870;4.606;2023-03-30T02:54:21;99917.56;;;12.20;48.18
68822;BME280;55834;50.870;4.606;2023-03-30T02:59:26;99924.09;;;12.13;48.52
68822;BME280;55834;50.870;4.606;2023-03-30T03:02:04;99913.84;;;12.25;48.25
68822;BME280;55834;50.870;4.606;2023-03-30T03:04:33;99914.09;;;12.37;48.03
68822;BME280;55834;50.870;4.606;2023-03-30T03:06:59;99911.81;;;12.30;47.79
68822;BME280;55834;50.870;4.606;2023-03-30T03:09:27;99903.03;;;12.66;47.06
68822;BME280;55834;50.870;4.606;2023-03-30T03:11:54;99898.97;;;12.93;46.47
68822;BME280;55834;50.870;4.606;2023-03-30T03:14:20;99904.63;;;12.14;48.67
68822;BME280;55834;50.870;4.606;2023-03-30T03:16:46;99904.63;;;12.14;48.33
68822;BME280;55834;50.870;4.606;2023-03-30T03:19:11;99909.59;;;12.39;48.04
68822;BME280;55834;50.870;4.606;2023-03-30T03:21:37;99925.88;;;11.55;49.63
68822;BME280;55834;50.870;4.606;2023-03-30T03:24:03;99914.72;;;12.06;49.07
68822;BME280;55834;50.870;4.606;2023-03-30T03:26:29;99919.81;;;11.13;50.84
68822;BME280;55834;50.870;4.606;2023-03-30T03:28:54;99912.03;;;11.70;49.44
68822;BME280;55834;50.870;4.606;2023-03-30T03:31:20;99903.63;;;11.98;48.80
68822;BME280;55834;50.870;4.606;2023-03-30T03:33:46;99913.50;;;11.57;50.21
68822;BME280;55834;50.870;4.606;2023-03-30T03:36:11;99920.59;;;11.94;49.05
68822;BME280;55834;50.870;4.606;2023-03-30T03:38:37;99924.44;;;11.08;50.34
68822;BME280;55834;50.870;4.606;2023-03-30T03:41:03;99927.13;;;11.87;48.81
68822;BME280;55834;50.870;4.606;2023-03-30T03:43:29;99905.75;;;11.13;49.97
68822;BME280;55834;50.870;4.606;2023-03-30T03:45:55;99910.72;;;11.60;49.39
68822;BME280;55834;50.870;4.606;2023-03-30T03:48:22;99900.47;;;12.09;48.59
68822;BME280;55834;50.870;4.606;2023-03-30T03:50:49;99903.97;;;12.09;48.03
68822;BME280;55834;50.870;4.606;2023-03-30T03:53:15;99888.81;;;12.49;47.24
68822;BME280;55834;50.870;4.606;2023-03-30T03:55:40;99900.78;;;11.65;49.06
68822;BME280;55834;50.870;4.606;2023-03-30T03:58:06;99898.72;;;11.32;50.26
68822;BME280;55834;50.870;4.606;2023-03-30T04:00:32;99901.56;;;12.05;48.63
68822;BME280;55834;50.870;4.606;2023-03-30T04:02:58;99891.28;;;11.99;48.87
68822;BME280;55834;50.870;4.606;2023-03-30T04:05:24;99884.31;;;12.51;47.83
68822;BME280;55834;50.870;4.606;2023-03-30T04:07:51;99892.72;;;11.87;49.58
68822;BME280;55834;50.870;4.606;2023-03-30T04:10:17;99889.56;;;11.60;49.78
68822;BME280;55834;50.870;4.606;2023-03-30T04:12:43;99900.44;;;12.10;48.71
68822;BME280;55834;50.870;4.606;2023-03-30T04:15:08;99891.75;;;12.07;49.15
68822;BME280;55834;50.870;4.606;2023-03-30T04:17:34;99895.56;;;11.82;49.24
68822;BME280;55834;50.870;4.606;2023-03-30T04:20:01;99884.94;;;12.20;48.79
68822;BME280;55834;50.870;4.606;2023-03-30T04:22:28;99880.88;;;12.49;47.98
68822;BME280;55834;50.870;4.606;2023-03-30T04:24:57;99886.63;;;12.40;48.25
68822;BME280;55834;50.870;4.606;2023-03-30T04:27:23;99894.56;;;12.57;48.08
68822;BME280;55834;50.870;4.606;2023-03-30T04:29:50;99886.06;;;11.97;49.34
68822;BME280;55834;50.870;4.606;2023-03-30T04:32:16;99897.84;;;12.45;48.03
68822;BME280;55834;50.870;4.606;2023-03-30T04:34:45;99896.03;;;12.09;48.95
68822;BME280;55834;50.870;4.606;2023-03-30T04:37:11;99889.78;;;12.29;48.53
68822;BME280;55834;50.870;4.606;2023-03-30T04:39:42;99895.03;;;11.76;49.98
68822;BME280;55834;50.870;4.606;2023-03-30T04:42:08;99897.09;;;12.24;49.04
68822;BME280;55834;50.870;4.606;2023-03-30T04:44:39;99888.75;;;12.51;48.40
68822;BME280;55834;50.870;4.606;2023-03-30T04:47:04;99903.66;;;11.79;50.16
68822;BME280;55834;50.870;4.606;2023-03-30T04:49:30;99906.00;;;11.66;50.33
68822;BME280;55834;50.870;4.606;2023-03-30T04:51:56;99907.94;;;11.63;50.79
68822;BME280;55834;50.870;4.606;2023-03-30T04:54:21;99913.84;;;12.25;49.49
68822;BME280;55834;50.870;4.606;2023-03-30T04:56:47;99924.47;;;11.87;51.49
68822;BME280;55834;50.870;4.606;2023-03-30T04:59:12;99922.88;;;11.64;52.97
68822;BME280;55834;50.870;4.606;2023-03-30T05:01:38;99929.94;;;11.43;53.75
68822;BME280;55834;50.870;4.606;2023-03-30T05:04:03;99922.16;;;11.40;54.25
68822;BME280;55834;50.870;4.606;2023-03-30T05:06:29;99923.16;;;11.77;53.40
68822;BME280;55834;50.870;4.606;2023-03-30T05:08:54;99930.00;;;11.81;52.35
68822;BME280;55834;50.870;4.606;2023-03-30T05:11:20;99939.38;;;11.29;54.22
68822;BME280;55834;50.870;4.606;2023-03-30T05:13:45;99932.63;;;11.02;54.78
68822;BME280;55834;50.870;4.606;2023-03-30T05:16:11;99939.28;;;11.31;54.32
68822;BME280;55834;50.870;4.606;2023-03-30T05:18:36;99948.19;;;11.28;54.34
68822;BME280;55834;50.870;4.606;2023-03-30T05:21:03;99951.19;;;11.21;54.40
68822;BME280;55834;50.870;4.606;2023-03-30T05:23:28;99954.09;;;11.15;54.68
68822;BME280;55834;50.870;4.606;2023-03-30T05:25:54;99950.25;;;11.01;54.99
68822;BME280;55834;50.870;4.606;2023-03-30T05:28:21;99949.53;;;10.98;55.49
68822;BME280;55834;50.870;4.606;2023-03-30T05:30:53;99957.34;;;11.21;55.46
68822;BME280;55834;50.870;4.606;2023-03-30T05:33:19;99961.66;;;11.43;55.19
68822;BME280;55834;50.870;4.606;2023-03-30T05:35:47;99956.97;;;10.88;57.93
68822;BME280;55834;50.870;4.606;2023-03-30T05:38:12;99963.66;;;10.97;58.24
68822;BME280;55834;50.870;4.606;2023-03-30T05:40:38;99964.94;;;10.66;59.21
68822;BME280;55834;50.870;4.606;2023-03-30T05:43:03;99970.31;;;10.19;60.83
68822;BME280;55834;50.870;4.606;2023-03-30T05:45:28;99970.06;;;10.25;60.54
68822;BME280;55834;50.870;4.606;2023-03-30T05:47:54;99972.75;;;10.24;60.04
68822;BME280;55834;50.870;4.606;2023-03-30T05:50:20;99962.47;;;10.61;59.98
68822;BME280;55834;50.870;4.606;2023-03-30T05:52:46;99980.09;;;10.61;59.21
68822;BME280;55834;50.870;4.606;2023-03-30T05:55:11;99975.97;;;11.18;58.12
68822;BME280;55834;50.870;4.606;2023-03-30T05:57:37;99975.69;;;11.04;57.60
68822;BME280;55834;50.870;4.606;2023-03-30T06:00:04;99979.56;;;10.95;56.87
68822;BME280;55834;50.870;4.606;2023-03-30T06:02:31;99988.06;;;10.81;57.82
68822;BME280;55834;50.870;4.606;2023-03-30T06:04:57;99999.25;;;10.66;58.77
68822;BME280;55834;50.870;4.606;2023-03-30T06:07:22;99990.56;;;11.06;57.44
68822;BME280;55834;50.870;4.606;2023-03-30T06:09:48;99997.94;;;10.76;57.80
68822;BME280;55834;50.870;4.606;2023-03-30T06:12:14;99995.56;;;11.33;57.03
68822;BME280;55834;50.870;4.606;2023-03-30T06:14:39;100013.53;;;11.04;57.23
68822;BME280;55834;50.870;4.606;2023-03-30T06:17:05;100019.78;;;11.65;56.04
68822;BME280;55834;50.870;4.606;2023-03-30T06:19:31;100014.91;;;11.13;56.91
68822;BME280;55834;50.870;4.606;2023-03-30T06:21:57;100014.75;;;11.18;57.17
68822;BME280;55834;50.870;4.606;2023-03-30T06:24:22;100024.47;;;11.38;56.47
68822;BME280;55834;50.870;4.606;2023-03-30T06:26:48;100027.47;;;11.90;55.66
68822;BME280;55834;50.870;4.606;2023-03-30T06:29:14;100031.97;;;11.88;55.52
68822;BME280;55834;50.870;4.606;2023-03-30T06:31:39;100032.56;;;11.53;56.41
68822;BME280;55834;50.870;4.606;2023-03-30T06:34:05;100032.31;;;11.39;56.50
68822;BME280;55834;50.870;4.606;2023-03-30T06:36:30;100022.72;;;11.16;56.71
68822;BME280;55834;50.870;4.606;2023-03-30T06:38:56;100018.78;;;11.47;56.47
68822;BME280;55834;50.870;4.606;2023-03-30T06:41:21;100031.06;;;10.63;59.15
68822;BME280;55834;50.870;4.606;2023-03-30T06:43:46;100020.66;;;11.43;56.63
68822;BME280;55834;50.870;4.606;2023-03-30T06:46:12;100018.94;;;11.01;58.02
68822;BME280;55834;50.870;4.606;2023-03-30T06:48:38;100019.13;;;11.17;57.14
68822;BME280;55834;50.870;4.606;2023-03-30T06:51:04;100020.31;;;10.90;57.55
68822;BME280;55834;50.870;4.606;2023-03-30T06:53:30;100022.41;;;11.24;56.39
68822;BME280;55834;50.870;4.606;2023-03-30T06:55:57;100033.09;;;10.78;57.46
68822;BME280;55834;50.870;4.606;2023-03-30T06:58:24;100028.22;;;11.32;56.85
68822;BME280;55834;50.870;4.606;2023-03-30T07:00:50;100032.19;;;11.00;57.84
68822;BME280;55834;50.870;4.606;2023-03-30T07:03:17;100036.25;;;10.43;59.22
68822;BME280;55834;50.870;4.606;2023-03-30T07:05:46;100033.25;;;10.74;59.22
68822;BME280;55834;50.870;4.606;2023-03-30T07:08:12;100031.16;;;11.04;57.76
68822;BME280;55834;50.870;4.606;2023-03-30T07:10:38;100032.56;;;10.47;59.59
68822;BME280;55834;50.870;4.606;2023-03-30T07:13:03;100041.31;;;10.25;59.76
68822;BME280;55834;50.870;4.606;2023-03-30T07:15:30;100041.19;;;10.28;60.18
68822;BME280;55834;50.870;4.606;2023-03-30T07:17:55;100042.97;;;10.51;58.86
68822;BME280;55834;50.870;4.606;2023-03-30T07:20:21;100041.88;;;11.42;57.34
68822;BME280;55834;50.870;4.606;2023-03-30T07:22:46;100046.25;;;11.63;56.18
68822;BME280;55834;50.870;4.606;2023-03-30T07:25:12;100063.19;;;11.59;56.35
68822;BME280;55834;50.870;4.606;2023-03-30T07:27:37;100073.13;;;10.90;57.46
68822;BME280;55834;50.870;4.606;2023-03-30T07:30:05;100075.56;;;11.79;56.50
68822;BME280;55834;50.870;4.606;2023-03-30T07:32:30;100078.03;;;12.03;55.53
68822;BME280;55834;50.870;4.606;2023-03-30T07:34:56;100079.97;;;11.99;55.63
68822;BME280;55834;50.870;4.606;2023-03-30T07:37:22;100088.59;;;10.99;57.75
68822;BME280;55834;50.870;4.606;2023-03-30T07:39:47;100083.22;;;11.65;57.42
68822;BME280;55834;50.870;4.606;2023-03-30T07:42:13;100095.00;;;11.36;57.19
68822;BME280;55834;50.870;4.606;2023-03-30T07:44:38;100077.69;;;11.49;57.56
68822;BME280;55834;50.870;4.606;2023-03-30T07:47:04;100091.03;;;11.46;57.33
68822;BME280;55834;50.870;4.606;2023-03-30T07:49:31;100090.75;;;11.32;57.23
68822;BME280;55834;50.870;4.606;2023-03-30T07:51:57;100103.06;;;11.33;57.48
68822;BME280;55834;50.870;4.606;2023-03-30T07:54:23;100113.66;;;11.33;56.92
68822;BME280;55834;50.870;4.606;2023-03-30T07:56:48;100108.16;;;11.37;57.16
68822;BME280;55834;50.870;4.606;2023-03-30T07:59:21;100108.63;;;11.26;57.08
68822;BME280;55834;50.870;4.606;2023-03-30T08:01:47;100106.91;;;11.03;57.39
68822;BME280;55834;50.870;4.606;2023-03-30T08:04:15;100103.06;;;10.43;58.61
68822;BME280;55834;50.870;4.606;2023-03-30T08:06:41;100111.84;;;10.67;58.50
68822;BME280;55834;50.870;4.606;2023-03-30T08:09:06;100096.66;;;10.50;59.34
68822;BME280;55834;50.870;4.606;2023-03-30T08:11:32;100095.28;;;11.29;57.05
68822;BME280;55834;50.870;4.606;2023-03-30T08:14:00;100094.22;;;11.76;56.29
68822;BME280;55834;50.870;4.606;2023-03-30T08:16:26;100106.34;;;11.60;56.35
68822;BME280;55834;50.870;4.606;2023-03-30T08:18:51;100116.28;;;11.75;55.66
68822;BME280;55834;50.870;4.606;2023-03-30T08:21:19;100098.00;;;11.06;57.55
68822;BME280;55834;50.870;4.606;2023-03-30T08:23:45;100113.88;;;11.69;56.86
68822;BME280;55834;50.870;4.606;2023-03-30T08:26:11;100122.81;;;11.02;57.93
68822;BME280;55834;50.870;4.606;2023-03-30T08:28:36;100109.22;;;11.11;57.76
68822;BME280;55834;50.870;4.606;2023-03-30T08:31:03;100119.13;;;11.06;57.37
68822;BME280;55834;50.870;4.606;2023-03-30T08:33:29;100134.44;;;11.40;56.81
68822;BME280;55834;50.870;4.606;2023-03-30T08:35:55;100139.59;;;11.01;56.81
68822;BME280;55834;50.870;4.606;2023-03-30T08:38:21;100147.38;;;10.58;57.03
68822;BME280;55834;50.870;4.606;2023-03-30T08:40:48;100149.91;;;10.13;59.94
68822;BME280;55834;50.870;4.606;2023-03-30T08:45:48;100150.25;;;10.76;57.55
68822;BME280;55834;50.870;4.606;2023-03-30T08:48:19;100140.94;;;10.89;57.25
68822;BME280;55834;50.870;4.606;2023-03-30T08:53:54;100148.47;;;11.42;55.62
68822;BME280;55834;50.870;4.606;2023-03-30T08:56:26;100149.66;;;11.98;54.14
68822;BME280;55834;50.870;4.606;2023-03-30T09:02:00;100152.03;;;12.25;54.11
68822;BME280;55834;50.870;4.606;2023-03-30T09:04:56;100160.84;;;12.05;53.24
68822;BME280;55834;50.870;4.606;2023-03-30T09:07:31;100168.00;;;11.82;54.49
68822;BME280;55834;50.870;4.606;2023-03-30T09:10:02;100165.25;;;12.45;52.92
68822;BME280;55834;50.870;4.606;2023-03-30T09:12:40;100160.09;;;12.01;53.07
68822;BME280;55834;50.870;4.606;2023-03-30T09:15:11;100154.06;;;12.57;51.14
68822;BME280;55834;50.870;4.606;2023-03-30T09:17:41;100157.91;;;12.90;51.37
68822;BME280;55834;50.870;4.606;2023-03-30T09:20:29;100164.56;;;12.40;51.82
68822;BME280;55834;50.870;4.606;2023-03-30T09:22:59;100173.19;;;11.84;52.77
68822;BME280;55834;50.870;4.606;2023-03-30T09:28:02;100164.88;;;12.53;52.24
68822;BME280;55834;50.870;4.606;2023-03-30T09:30:38;100160.97;;;12.22;53.32
68822;BME280;55834;50.870;4.606;2023-03-30T09:33:30;100165.00;;;12.89;51.72
68822;BME280;55834;50.870;4.606;2023-03-30T09:36:12;100172.59;;;12.97;51.57
68822;BME280;55834;50.870;4.606;2023-03-30T09:38:39;100179.91;;;12.13;53.86
68822;BME280;55834;50.870;4.606;2023-03-30T09:41:44;100175.59;;;11.03;56.81
68822;BME280;55834;50.870;4.606;2023-03-30T09:44:30;100175.09;;;11.38;58.29
68822;BME280;55834;50.870;4.606;2023-03-30T09:46:59;100178.47;;;10.97;57.96
68822;BME280;55834;50.870;4.606;2023-03-30T09:49:27;100186.59;;;11.37;58.30
68822;BME280;55834;50.870;4.606;2023-03-30T09:54:33;100183.13;;;11.58;58.98
68822;BME280;55834;50.870;4.606;2023-03-30T09:57:00;100188.41;;;11.58;57.83
68822;BME280;55834;50.870;4.606;2023-03-30T09:59:34;100197.34;;;11.54;57.61
68822;BME280;55834;50.870;4.606;2023-03-30T10:07:26;100193.03;;;11.51;58.24
68822;BME280;55834;50.870;4.606;2023-03-30T10:09:52;100186.78;;;12.17;56.75
68822;BME280;55834;50.870;4.606;2023-03-30T10:12:17;100191.19;;;12.37;56.23
68822;BME280;55834;50.870;4.606;2023-03-30T10:14:43;100203.22;;;11.17;59.40
68822;BME280;55834;50.870;4.606;2023-03-30T10:17:20;100217.56;;;11.55;58.81
68822;BME280;55834;50.870;4.606;2023-03-30T10:19:47;100211.59;;;11.28;59.58
68822;BME280;55834;50.870;4.606;2023-03-30T10:22:18;100214.72;;;11.16;59.30
68822;BME280;55834;50.870;4.606;2023-03-30T10:24:55;100217.22;;;10.97;60.45
68822;BME280;55834;50.870;4.606;2023-03-30T10:27:36;100234.50;;;10.82;60.95
68822;BME280;55834;50.870;4.606;2023-03-30T10:30:11;100224.38;;;10.45;62.09
68822;BME280;55834;50.870;4.606;2023-03-30T10:32:37;100228.94;;;10.90;60.70
68822;BME280;55834;50.870;4.606;2023-03-30T10:35:07;100221.38;;;10.57;61.74
68822;BME280;55834;50.870;4.606;2023-03-30T10:37:41;100223.53;;;10.93;61.55
68822;BME280;55834;50.870;4.606;2023-03-30T10:40:15;100220.09;;;10.67;61.32
68822;BME280;55834;50.870;4.606;2023-03-30T10:42:42;100213.34;;;10.60;62.33
68822;BME280;55834;50.870;4.606;2023-03-30T10:45:17;100211.59;;;11.50;61.39
68822;BME280;55834;50.870;4.606;2023-03-30T10:50:20;100217.41;;;10.92;60.69
68822;BME280;55834;50.870;4.606;2023-03-30T10:53:00;100206.44;;;11.25;61.08
68822;BME280;55834;50.870;4.606;2023-03-30T10:55:51;100212.19;;;11.58;61.38
68822;BME280;55834;50.870;4.606;2023-03-30T10:58:50;100220.81;;;11.84;61.80
68822;BME280;55834;50.870;4.606;2023-03-30T11:01:28;100222.34;;;12.10;60.13
68822;BME280;55834;50.870;4.606;2023-03-30T11:04:01;100209.31;;;12.26;58.37
68822;BME280;55834;50.870;4.606;2023-03-30T11:06:33;100218.75;;;12.52;58.54
68822;BME280;55834;50.870;4.606;2023-03-30T11:09:02;100227.72;;;11.88;59.15
68822;BME280;55834;50.870;4.606;2023-03-30T11:11:37;100224.13;;;11.01;61.06
68822;BME280;55834;50.870;4.606;2023-03-30T11:14:14;100221.00;;;11.13;60.51
68822;BME280;55834;50.870;4.606;2023-03-30T11:16:50;100221.47;;;11.23;60.88
68822;BME280;55834;50.870;4.606;2023-03-30T11:19:31;100222.75;;;12.01;59.22
68822;BME280;55834;50.870;4.606;2023-03-30T11:22:05;100223.28;;;11.66;58.89
68822;BME280;55834;50.870;4.606;2023-03-30T11:24:39;100220.34;;;12.35;56.92
68822;BME280;55834;50.870;4.606;2023-03-30T11:27:12;100228.38;;;11.49;57.47
68822;BME280;55834;50.870;4.606;2023-03-30T11:32:36;100233.53;;;11.76;58.04
68822;BME280;55834;50.870;4.606;2023-03-30T11:35:14;100229.69;;;12.64;55.55
68822;BME280;55834;50.870;4.606;2023-03-30T11:40:20;100216.53;;;11.81;56.56
68822;BME280;55834;50.870;4.606;2023-03-30T11:42:47;100218.00;;;12.29;56.17
68822;BME280;55834;50.870;4.606;2023-03-30T11:50:50;100221.50;;;12.90;54.10
68822;BME280;55834;50.870;4.606;2023-03-30T11:53:31;100210.31;;;13.02;53.84
68822;BME280;55834;50.870;4.606;2023-03-30T11:56:06;100210.59;;;12.96;54.33
68822;BME280;55834;50.870;4.606;2023-03-30T11:59:01;100210.38;;;12.62;54.71
68822;BME280;55834;50.870;4.606;2023-03-30T12:04:46;100210.53;;;12.97;51.31
68822;BME280;55834;50.870;4.606;2023-03-30T12:07:33;100205.75;;;13.42;49.87
68822;BME280;55834;50.870;4.606;2023-03-30T12:10:27;100201.16;;;14.16;49.26
68822;BME280;55834;50.870;4.606;2023-03-30T12:12:55;100212.75;;;12.48;49.87
68822;BME280;55834;50.870;4.606;2023-03-30T12:15:39;100208.00;;;13.13;49.03
68822;BME280;55834;50.870;4.606;2023-03-30T12:18:24;100208.56;;;13.39;48.94
68822;BME280;55834;50.870;4.606;2023-03-30T12:26:29;100193.84;;;13.69;48.83
68822;BME280;55834;50.870;4.606;2023-03-30T12:29:07;100197.47;;;14.36;47.91
68822;BME280;55834;50.870;4.606;2023-03-30T12:34:16;100192.25;;;14.00;47.43
68822;BME280;55834;50.870;4.606;2023-03-30T12:36:46;100188.91;;;14.64;45.72
68822;BME280;55834;50.870;4.606;2023-03-30T12:39:17;100189.47;;;15.03;44.94
68822;BME280;55834;50.870;4.606;2023-03-30T12:41:48;100203.88;;;13.63;45.91
68822;BME280;55834;50.870;4.606;2023-03-30T12:45:09;100205.31;;;13.15;47.11
68822;BME280;55834;50.870;4.606;2023-03-30T13:02:00;100163.03;;;14.17;47.35
68822;BME280;55834;50.870;4.606;2023-03-30T13:04:37;100162.38;;;13.96;46.67
68822;BME280;55834;50.870;4.606;2023-03-30T13:07:07;100160.25;;;14.03;46.70
68822;BME280;55834;50.870;4.606;2023-03-30T13:09:55;100163.09;;;14.51;46.29
68822;BME280;55834;50.870;4.606;2023-03-30T13:18:23;100161.00;;;14.22;45.89
68822;BME280;55834;50.870;4.606;2023-03-30T13:26:00;100160.16;;;14.22;45.05
68822;BME280;55834;50.870;4.606;2023-03-30T13:37:08;100163.34;;;13.78;46.03
68822;BME280;55834;50.870;4.606;2023-03-30T13:40:02;100159.00;;;14.43;44.96
68822;BME280;55834;50.870;4.606;2023-03-30T13:43:25;100161.44;;;13.63;47.20
68822;BME280;55834;50.870;4.606;2023-03-30T13:48:11;100146.56;;;14.44;44.83
68822;BME280;55834;50.870;4.606;2023-03-30T13:50:45;100151.03;;;13.41;46.33
68822;BME280;55834;50.870;4.606;2023-03-30T13:53:14;100153.34;;;14.34;45.22
68822;BME280;55834;50.870;4.606;2023-03-30T13:55:42;100145.44;;;13.99;44.50
68822;BME280;55834;50.870;4.606;2023-03-30T14:00:55;100160.91;;;13.73;45.85
68822;BME280;55834;50.870;4.606;2023-03-30T14:03:49;100155.38;;;13.95;46.13
68822;BME280;55834;50.870;4.606;2023-03-30T14:06:16;100161.97;;;13.52;48.87
68822;BME280;55834;50.870;4.606;2023-03-30T14:08:46;100156.38;;;13.39;50.84
68822;BME280;55834;50.870;4.606;2023-03-30T14:11:49;100156.19;;;12.89;51.65
68822;BME280;55834;50.870;4.606;2023-03-30T14:14:17;100161.91;;;13.17;49.91
68822;BME280;55834;50.870;4.606;2023-03-30T14:16:44;100148.09;;;13.28;49.79
68822;BME280;55834;50.870;4.606;2023-03-30T14:19:31;100135.13;;;14.10;48.50
68822;BME280;55834;50.870;4.606;2023-03-30T14:22:08;100127.28;;;14.58;48.74
68822;BME280;55834;50.870;4.606;2023-03-30T14:24:34;100134.59;;;13.86;47.24
68822;BME280;55834;50.870;4.606;2023-03-30T14:27:06;100130.81;;;14.41;46.48
68822;BME280;55834;50.870;4.606;2023-03-30T14:29:46;100132.69;;;14.56;46.58
68822;BME280;55834;50.870;4.606;2023-03-30T14:32:13;100135.00;;;14.29;47.05
68822;BME280;55834;50.870;4.606;2023-03-30T14:34:44;100134.47;;;14.56;45.10
68822;BME280;55834;50.870;4.606;2023-03-30T14:37:10;100141.78;;;14.68;44.21
68822;BME280;55834;50.870;4.606;2023-03-30T14:39:55;100156.13;;;13.80;46.86
68822;BME280;55834;50.870;4.606;2023-03-30T14:42:29;100167.84;;;13.03;50.34
68822;BME280;55834;50.870;4.606;2023-03-30T14:44:56;100171.09;;;13.27;50.89
68822;BME280;55834;50.870;4.606;2023-03-30T14:47:28;100178.59;;;12.62;52.98
68822;BME280;55834;50.870;4.606;2023-03-30T14:49:58;100181.25;;;13.00;52.26
68822;BME280;55834;50.870;4.606;2023-03-30T14:52:32;100176.16;;;12.58;53.18
68822;BME280;55834;50.870;4.606;2023-03-30T14:54:58;100178.25;;;12.89;52.89
68822;BME280;55834;50.870;4.606;2023-03-30T14:57:24;100203.44;;;12.60;53.46
68822;BME280;55834;50.870;4.606;2023-03-30T14:59:54;100204.69;;;12.31;54.87
68822;BME280;55834;50.870;4.606;2023-03-30T15:02:25;100203.16;;;12.46;56.08
68822;BME280;55834;50.870;4.606;2023-03-30T15:04:55;100184.53;;;12.47;57.99
68822;BME280;55834;50.870;4.606;2023-03-30T15:07:22;100177.19;;;12.74;58.92
68822;BME280;55834;50.870;4.606;2023-03-30T15:09:56;100172.44;;;13.00;57.91